Time;durP1;ratioP1;P1;durP2;ratioP2;P2;SDS_P1;SDS_P2;PMS_P1;PMS_P2;Temp;Humidity;BMP_temperature;BMP_pressure;BME280_temperature;BME280_humidity;BME280_pressure;Samples;Min_cycle;Max_cycle;Signal;HPM_P1;HPM_P2
2021/03/01 00:00:44;;;;;;;29.43;20.93;;;;;;;;;;2084342;28;20172;-53
2021/03/01 00:01:45;;;;;;;30.23;20.40;;;;;;;;;;2080275;28;20669;-53
2021/03/01 00:02:45;;;;;;;28.40;20.10;;;;;;;;;;2080487;28;20181;-55
2021/03/01 00:03:45;;;;;;;27.83;21.07;;;;;;;;;;2081113;28;20206;-57
2021/03/01 00:04:45;;;;;;;32.27;21.70;;;;;;;;;;2088378;28;20290;-59
2021/03/01 00:05:46;;;;;;;32.73;21.07;;;;;;;;;;2083029;28;20203;-57
2021/03/01 00:06:46;;;;;;;34.80;21.70;;;;;;;;;;2084869;28;20262;-57
2021/03/01 00:07:47;;;;;;;31.30;21.57;;;;;;;;;;2081272;28;20183;-55
2021/03/01 00:08:47;;;;;;;31.63;22.13;;;;;;;;;;2081250;28;20165;-58
2021/03/01 00:09:48;;;;;;;29.77;21.33;;;;;;;;;;2080464;28;20242;-56
2021/03/01 00:10:48;;;;;;;28.40;20.03;;;;;;;;;;2088081;28;20179;-56
2021/03/01 00:11:48;;;;;;;29.40;20.47;;;;;;;;;;2081738;28;20203;-58
2021/03/01 00:12:49;;;;;;;29.60;20.30;;;;;;;;;;2083655;28;20263;-58
2021/03/01 00:13:49;;;;;;;31.13;20.87;;;;;;;;;;2086892;28;20190;-56
2021/03/01 00:14:49;;;;;;;25.47;19.77;;;;;;;;;;2088794;28;20175;-58
2021/03/01 00:15:50;;;;;;;32.50;19.50;;;;;;;;;;2089951;28;20183;-56
2021/03/01 00:16:51;;;;;;;30.20;19.83;;;;;;;;;;2082306;28;20217;-58
2021/03/01 00:17:51;;;;;;;29.27;20.80;;;;;;;;;;2081752;28;20172;-58
2021/03/01 00:18:51;;;;;;;27.63;20.67;;;;;;;;;;2082094;28;20168;-56
2021/03/01 00:19:51;;;;;;;27.30;20.47;;;;;;;;;;2080858;28;20168;-60
2021/03/01 00:20:52;;;;;;;29.20;21.57;;;;;;;;;;2081894;28;20338;-57
2021/03/01 00:21:52;;;;;;;32.77;21.37;;;;;;;;;;2080930;28;20179;-57
2021/03/01 00:22:52;;;;;;;30.40;22.30;;;;;;;;;;2081059;28;20200;-57
2021/03/01 00:23:52;;;;;;;31.77;22.73;;;;;;;;;;2080870;28;20668;-58
2021/03/01 00:24:53;;;;;;;35.30;23.70;;;;;;;;;;2081747;28;20200;-59
2021/03/01 00:25:53;;;;;;;34.07;22.33;;;;;;;;;;2081324;28;20183;-56
2021/03/01 00:26:53;;;;;;;38.10;22.90;;;;;;;;;;2078842;28;20180;-56
2021/03/01 00:27:53;;;;;;;33.83;22.57;;;;;;;;;;2078669;28;20183;-58
2021/03/01 00:28:54;;;;;;;32.20;21.90;;;;;;;;;;2081391;28;20606;-58
2021/03/01 00:29:54;;;;;;;33.87;22.20;;;;;;;;;;2082067;28;20188;-54
2021/03/01 00:30:54;;;;;;;31.60;22.13;;;;;;;;;;2081671;28;20313;-58
2021/03/01 00:31:55;;;;;;;34.43;22.27;;;;;;;;;;2080663;28;20743;-56
2021/03/01 00:32:55;;;;;;;31.83;20.87;;;;;;;;;;2082204;28;20176;-58
2021/03/01 00:33:55;;;;;;;28.63;20.47;;;;;;;;;;2082169;28;20215;-58
2021/03/01 00:34:55;;;;;;;30.93;20.97;;;;;;;;;;2082571;28;20184;-57
2021/03/01 00:35:56;;;;;;;32.47;21.53;;;;;;;;;;2082599;28;20196;-61
2021/03/01 00:36:56;;;;;;;31.53;21.37;;;;;;;;;;2079948;28;20175;-58
2021/03/01 00:37:56;;;;;;;30.60;21.67;;;;;;;;;;2080375;28;20561;-56
2021/03/01 00:38:56;;;;;;;31.70;20.87;;;;;;;;;;2081681;28;20184;-54
2021/03/01 00:39:56;;;;;;;29.77;21.70;;;;;;;;;;2081250;28;20605;-58
2021/03/01 00:40:57;;;;;;;28.60;20.37;;;;;;;;;;2082493;28;20208;-54
2021/03/01 00:41:57;;;;;;;27.87;21.27;;;;;;;;;;2081730;28;20168;-55
2021/03/01 00:42:57;;;;;;;27.83;20.40;;;;;;;;;;2077522;28;20191;-53
2021/03/01 00:43:58;;;;;;;30.47;20.43;;;;;;;;;;2073113;28;20180;-57
2021/03/01 00:44:58;;;;;;;33.03;21.30;;;;;;;;;;2088907;28;20568;-56
2021/03/01 00:45:58;;;;;;;35.07;21.20;;;;;;;;;;2081668;28;20184;-56
2021/03/01 00:46:59;;;;;;;34.90;23.63;;;;;;;;;;2077238;28;20173;-56
2021/03/01 00:47:59;;;;;;;34.73;23.43;;;;;;;;;;2070340;28;20189;-53
2021/03/01 00:48:59;;;;;;;36.53;23.43;;;;;;;;;;2081017;28;20252;-55
2021/03/01 00:49:59;;;;;;;34.03;22.97;;;;;;;;;;2081847;28;20677;-56
2021/03/01 00:51:00;;;;;;;44.30;23.67;;;;;;;;;;2081066;28;20180;-55
2021/03/01 00:52:00;;;;;;;35.77;23.33;;;;;;;;;;2076530;28;20169;-57
2021/03/01 00:53:00;;;;;;;46.23;25.70;;;;;;;;;;2069072;28;20557;-58
2021/03/01 00:54:00;;;;;;;38.27;24.50;;;;;;;;;;2089151;28;20175;-58
2021/03/01 00:55:08;;;;;;;38.93;25.87;;;;;;;;;;2074798;28;20185;-58
2021/03/01 00:56:08;;;;;;;38.83;25.33;;;;;;;;;;2089371;28;20413;-57
2021/03/01 00:57:09;;;;;;;38.27;25.50;;;;;;;;;;2070931;28;20685;-57
2021/03/01 00:58:10;;;;;;;44.13;26.10;;;;;;;;;;2080028;28;20211;-59
2021/03/01 00:59:10;;;;;;;39.30;25.80;;;;;;;;;;2081819;28;20169;-59
2021/03/01 01:00:12;;;;;;;40.87;26.37;;;;;;;;;;2081549;28;20176;-61
2021/03/01 01:01:15;;;;;;;42.17;24.77;;;;;;;;;;2079964;28;20176;-61
2021/03/01 01:02:15;;;;;;;37.03;23.57;;;;;;;;;;2080196;28;20930;-60
2021/03/01 01:03:27;;;;;;;32.97;23.23;;;;;;;;;;2078917;28;20614;-59
2021/03/01 01:04:36;;;;;;;36.60;22.47;;;;;;;;;;2074753;28;20472;-59
2021/03/01 01:05:36;;;;;;;38.40;23.80;;;;;;;;;;2073259;28;20418;-57
2021/03/01 01:06:36;;;;;;;38.00;24.07;;;;;;;;;;2081284;28;20230;-61
2021/03/01 01:07:37;;;;;;;39.57;25.67;;;;;;;;;;2076443;28;20251;-58
2021/03/01 01:08:37;;;;;;;40.23;24.80;;;;;;;;;;2082587;28;20180;-59
2021/03/01 01:09:37;;;;;;;38.43;23.90;;;;;;;;;;2084382;28;20182;-57
2021/03/01 01:10:37;;;;;;;38.17;24.60;;;;;;;;;;2084981;28;20195;-60
2021/03/01 01:11:38;;;;;;;46.10;25.10;;;;;;;;;;2089980;28;20410;-60
2021/03/01 01:12:38;;;;;;;79.53;30.00;;;;;;;;;;2086262;28;20219;-61
2021/03/01 01:13:38;;;;;;;72.63;29.77;;;;;;;;;;2084329;28;20193;-61
2021/03/01 01:14:39;;;;;;;79.73;31.17;;;;;;;;;;2089336;28;20240;-58
2021/03/01 01:15:39;;;;;;;96.53;32.03;;;;;;;;;;2089456;28;20176;-58
2021/03/01 01:16:40;;;;;;;79.17;28.57;;;;;;;;;;2096298;28;20224;-60
2021/03/01 01:17:40;;;;;;;74.33;30.10;;;;;;;;;;2088618;28;20226;-58
2021/03/01 01:18:40;;;;;;;69.73;29.33;;;;;;;;;;2093251;28;20169;-58
2021/03/01 01:19:41;;;;;;;79.90;29.10;;;;;;;;;;2097079;28;20166;-59
2021/03/01 01:20:41;;;;;;;81.13;28.90;;;;;;;;;;2084537;28;20215;-59
2021/03/01 01:21:41;;;;;;;72.27;28.47;;;;;;;;;;2081506;28;20171;-58
2021/03/01 01:22:42;;;;;;;64.03;27.43;;;;;;;;;;2082003;28;20518;-60
2021/03/01 01:23:42;;;;;;;68.43;26.87;;;;;;;;;;2089817;28;20187;-60
2021/03/01 01:24:42;;;;;;;58.77;26.30;;;;;;;;;;2095665;28;20194;-58
2021/03/01 01:25:43;;;;;;;53.73;25.77;;;;;;;;;;2084104;28;20191;-58
2021/03/01 01:26:43;;;;;;;47.77;25.00;;;;;;;;;;2081381;28;20633;-58
2021/03/01 01:27:43;;;;;;;58.37;25.43;;;;;;;;;;2080741;28;20643;-58
2021/03/01 01:28:44;;;;;;;52.13;25.67;;;;;;;;;;2087235;28;20222;-58
2021/03/01 01:29:44;;;;;;;48.77;24.43;;;;;;;;;;2085619;28;20236;-54
2021/03/01 01:30:44;;;;;;;42.27;23.40;;;;;;;;;;2083453;28;20222;-57
2021/03/01 01:31:44;;;;;;;43.57;22.73;;;;;;;;;;2081127;28;20551;-54
2021/03/01 01:32:45;;;;;;;34.97;21.63;;;;;;;;;;2081271;28;20230;-59
2021/03/01 01:33:45;;;;;;;38.67;21.93;;;;;;;;;;2078124;28;20184;-57
2021/03/01 01:34:45;;;;;;;38.20;22.33;;;;;;;;;;2087212;28;20179;-54
2021/03/01 01:35:45;;;;;;;42.00;21.40;;;;;;;;;;2074338;28;20197;-55
2021/03/01 01:36:46;;;;;;;43.97;21.47;;;;;;;;;;2084082;28;20186;-53
2021/03/01 01:37:46;;;;;;;31.97;20.53;;;;;;;;;;2076062;28;20184;-54
2021/03/01 01:38:46;;;;;;;34.23;22.30;;;;;;;;;;2080548;28;20168;-58
2021/03/01 01:39:47;;;;;;;34.80;21.40;;;;;;;;;;2080707;28;20222;-54
2021/03/01 01:40:47;;;;;;;34.53;20.47;;;;;;;;;;2087819;28;20188;-57
2021/03/01 01:41:47;;;;;;;32.47;22.30;;;;;;;;;;2082338;28;20188;-58
2021/03/01 01:42:51;;;;;;;36.77;21.57;;;;;;;;;;2087857;28;20206;-56
2021/03/01 01:43:51;;;;;;;37.67;23.27;;;;;;;;;;2074887;28;20169;-58
2021/03/01 01:44:52;;;;;;;31.53;20.77;;;;;;;;;;2072660;28;20596;-56
2021/03/01 01:45:52;;;;;;;176.77;43.03;;;;;;;;;;2078856;28;20195;-56
2021/03/01 01:46:52;;;;;;;118.77;36.53;;;;;;;;;;2076766;28;20168;-54
2021/03/01 01:47:53;;;;;;;145.57;35.57;;;;;;;;;;2083232;28;20604;-54
2021/03/01 01:48:53;;;;;;;111.33;32.43;;;;;;;;;;2088524;28;20728;-56
2021/03/01 01:49:53;;;;;;;82.03;30.23;;;;;;;;;;2089826;28;20194;-56
2021/03/01 01:50:54;;;;;;;75.73;31.43;;;;;;;;;;2091574;28;20210;-54
2021/03/01 01:51:54;;;;;;;79.07;30.83;;;;;;;;;;2084658;28;20177;-58
2021/03/01 01:52:55;;;;;;;75.87;31.37;;;;;;;;;;2086168;28;20225;-57
2021/03/01 01:53:55;;;;;;;61.90;28.03;;;;;;;;;;2083392;28;20216;-56
2021/03/01 01:54:56;;;;;;;50.70;27.20;;;;;;;;;;2089544;28;20172;-56
2021/03/01 01:55:56;;;;;;;49.07;26.17;;;;;;;;;;2082568;28;20253;-58
2021/03/01 01:56:56;;;;;;;48.67;25.97;;;;;;;;;;2083879;28;20206;-58
2021/03/01 01:57:57;;;;;;;53.73;28.50;;;;;;;;;;2080445;28;20192;-56
2021/03/01 01:58:57;;;;;;;54.70;28.20;;;;;;;;;;2088205;28;20187;-56
2021/03/01 01:59:57;;;;;;;47.13;27.03;;;;;;;;;;2090333;28;20579;-54
2021/03/01 02:00:58;;;;;;;42.47;25.87;;;;;;;;;;2082314;28;20195;-56
2021/03/01 02:01:59;;;;;;;44.10;25.43;;;;;;;;;;2081659;28;20235;-59
2021/03/01 02:03:06;;;;;;;39.37;24.00;;;;;;;;;;2089953;28;20174;-58
2021/03/01 02:04:10;;;;;;;41.57;25.87;;;;;;;;;;2082366;28;20420;-57
2021/03/01 02:05:11;;;;;;;44.37;25.17;;;;;;;;;;2084175;28;20871;-55
2021/03/01 02:06:36;;;;;;;52.70;29.00;;;;;;;;;;2089290;28;20947;-58
2021/03/01 02:07:42;;;;;;;52.63;29.60;;;;;;;;;;2085367;28;20392;-58
2021/03/01 02:08:51;;;;;;;48.63;30.93;;;;;;;;;;2080836;28;20477;-54
2021/03/01 02:10:12;;;;;;;55.40;33.07;;;;;;;;;;2084529;28;20417;-58
2021/03/01 02:11:22;;;;;;;57.67;30.30;;;;;;;;;;2077917;28;20417;-58
2021/03/01 02:12:28;;;;;;;60.73;31.60;;;;;;;;;;2087461;28;20453;-58
2021/03/01 02:13:43;;;;;;;60.20;32.13;;;;;;;;;;2086202;28;21321;-58
2021/03/01 02:15:02;;;;;;;58.80;31.77;;;;;;;;;;2084119;28;20433;-61
2021/03/01 02:16:35;;;;;;;57.30;32.50;;;;;;;;;;2083111;28;20188;-58
2021/03/01 02:17:35;;;;;;;58.50;31.60;;;;;;;;;;2070004;28;20517;-60
2021/03/01 02:18:36;;;;;;;56.90;31.13;;;;;;;;;;2084202;28;20405;-59
2021/03/01 02:19:36;;;;;;;57.63;31.63;;;;;;;;;;2084637;28;20706;-56
2021/03/01 02:20:41;;;;;;;55.97;31.77;;;;;;;;;;2087525;28;20695;-58
2021/03/01 02:21:45;;;;;;;50.83;30.30;;;;;;;;;;2088223;28;20164;-56
2021/03/01 02:22:46;;;;;;;55.67;30.07;;;;;;;;;;2080782;28;20425;-54
2021/03/01 02:23:47;;;;;;;53.97;30.43;;;;;;;;;;2086260;28;20211;-59
2021/03/01 02:24:48;;;;;;;48.53;30.10;;;;;;;;;;2083774;28;20464;-59
2021/03/01 02:26:00;;;;;;;48.90;27.83;;;;;;;;;;2082713;28;20177;-59
2021/03/01 02:27:01;;;;;;;51.10;28.47;;;;;;;;;;2082239;28;20221;-58
2021/03/01 02:28:06;;;;;;;49.60;28.97;;;;;;;;;;2090091;28;20221;-55
2021/03/01 02:29:08;;;;;;;47.37;28.50;;;;;;;;;;2083771;28;20233;-59
2021/03/01 02:30:25;;;;;;;45.10;28.07;;;;;;;;;;2090042;28;20641;-60
2021/03/01 02:31:26;;;;;;;45.43;26.90;;;;;;;;;;2088064;28;20915;-58
2021/03/01 02:32:28;;;;;;;53.73;27.83;;;;;;;;;;2086580;28;20267;-61
2021/03/01 02:33:30;;;;;;;48.53;27.10;;;;;;;;;;2080000;28;20289;-56
2021/03/01 02:34:32;;;;;;;47.23;28.43;;;;;;;;;;2084817;28;20172;-59
2021/03/01 02:35:33;;;;;;;58.10;30.00;;;;;;;;;;2084707;28;20420;-56
2021/03/01 02:36:41;;;;;;;47.50;27.57;;;;;;;;;;2087101;28;20172;-56
2021/03/01 02:37:42;;;;;;;45.90;26.77;;;;;;;;;;2080525;28;20216;-59
2021/03/01 02:38:43;;;;;;;48.77;27.13;;;;;;;;;;2084300;28;20685;-55
2021/03/01 02:39:44;;;;;;;40.60;25.93;;;;;;;;;;2080795;28;20184;-60
2021/03/01 02:40:45;;;;;;;42.77;27.13;;;;;;;;;;2084963;28;20262;-56
2021/03/01 02:41:45;;;;;;;44.27;25.37;;;;;;;;;;2087517;28;20175;-59
2021/03/01 02:42:46;;;;;;;42.07;26.37;;;;;;;;;;2087210;28;20176;-57
2021/03/01 02:43:47;;;;;;;42.83;25.20;;;;;;;;;;2095642;28;20220;-57
2021/03/01 02:44:48;;;;;;;37.93;24.93;;;;;;;;;;2081829;28;20214;-56
2021/03/01 02:45:49;;;;;;;42.17;26.27;;;;;;;;;;2085723;28;20183;-58
2021/03/01 02:46:49;;;;;;;45.00;26.93;;;;;;;;;;2086874;28;20191;-53
2021/03/01 02:47:50;;;;;;;38.83;25.33;;;;;;;;;;2082036;28;20184;-55
2021/03/01 02:48:50;;;;;;;39.27;24.77;;;;;;;;;;2084074;28;20176;-60
2021/03/01 02:49:52;;;;;;;43.70;24.70;;;;;;;;;;2089755;28;20180;-58
2021/03/01 02:50:52;;;;;;;36.43;22.97;;;;;;;;;;2083193;28;20652;-58
2021/03/01 02:51:53;;;;;;;31.60;22.13;;;;;;;;;;2080642;28;20176;-57
2021/03/01 02:52:54;;;;;;;33.10;23.30;;;;;;;;;;2087573;28;20636;-57
2021/03/01 02:53:57;;;;;;;32.00;22.17;;;;;;;;;;2089890;28;20179;-57
2021/03/01 02:54:58;;;;;;;30.13;22.87;;;;;;;;;;2082238;28;20199;-56
2021/03/01 02:55:59;;;;;;;30.87;21.50;;;;;;;;;;2090837;28;20657;-58
2021/03/01 02:57:00;;;;;;;29.63;21.87;;;;;;;;;;2074365;28;20188;-58
2021/03/01 02:58:01;;;;;;;31.47;21.73;;;;;;;;;;2090276;28;20175;-56
2021/03/01 02:59:02;;;;;;;31.93;21.70;;;;;;;;;;2082727;28;20328;-57
2021/03/01 03:00:07;;;;;;;27.57;21.97;;;;;;;;;;2089385;28;20183;-56
2021/03/01 03:01:08;;;;;;;33.30;21.40;;;;;;;;;;2081246;28;20183;-55
2021/03/01 03:02:09;;;;;;;27.20;20.57;;;;;;;;;;2080143;28;20210;-56
2021/03/01 03:03:09;;;;;;;27.17;21.40;;;;;;;;;;2083090;28;20685;-55
2021/03/01 03:04:11;;;;;;;26.23;19.60;;;;;;;;;;2088963;28;20172;-56
2021/03/01 03:05:12;;;;;;;26.70;19.73;;;;;;;;;;2083479;28;20287;-57
2021/03/01 03:06:16;;;;;;;26.93;20.50;;;;;;;;;;2088280;28;20626;-55
2021/03/01 03:07:17;;;;;;;25.90;18.83;;;;;;;;;;2080940;28;20201;-58
2021/03/01 03:08:17;;;;;;;28.67;19.73;;;;;;;;;;2086614;28;20210;-59
2021/03/01 03:09:18;;;;;;;27.40;19.60;;;;;;;;;;2083706;28;20183;-57
2021/03/01 03:10:18;;;;;;;29.80;20.20;;;;;;;;;;2086213;28;20675;-57
2021/03/01 03:11:20;;;;;;;28.03;19.77;;;;;;;;;;2086352;28;20180;-56
2021/03/01 03:12:20;;;;;;;27.97;19.87;;;;;;;;;;2081098;28;20176;-57
2021/03/01 03:13:21;;;;;;;28.00;19.97;;;;;;;;;;2078450;28;20524;-57
2021/03/01 03:14:23;;;;;;;28.03;20.00;;;;;;;;;;2084242;28;20226;-58
2021/03/01 03:15:25;;;;;;;27.80;20.80;;;;;;;;;;2086558;28;20176;-56
2021/03/01 03:16:26;;;;;;;28.37;19.33;;;;;;;;;;2079600;28;20195;-57
2021/03/01 03:17:27;;;;;;;24.83;18.43;;;;;;;;;;2076036;28;20188;-55
2021/03/01 03:18:28;;;;;;;25.17;18.87;;;;;;;;;;2081589;28;20171;-56
2021/03/01 03:19:28;;;;;;;27.57;20.87;;;;;;;;;;2087482;28;20233;-55
2021/03/01 03:20:28;;;;;;;25.77;18.80;;;;;;;;;;2086364;28;20230;-56
2021/03/01 03:21:29;;;;;;;27.63;20.07;;;;;;;;;;2083660;28;20207;-55
2021/03/01 03:22:30;;;;;;;26.27;19.17;;;;;;;;;;2083191;28;20203;-57
2021/03/01 03:23:30;;;;;;;27.43;20.83;;;;;;;;;;2085436;28;20200;-59
2021/03/01 03:24:30;;;;;;;23.93;20.23;;;;;;;;;;2082908;28;20903;-54
2021/03/01 03:25:31;;;;;;;24.97;19.13;;;;;;;;;;2087062;28;20178;-55
2021/03/01 03:26:31;;;;;;;27.40;20.27;;;;;;;;;;2086383;28;20184;-54
2021/03/01 03:27:31;;;;;;;26.63;20.47;;;;;;;;;;2082926;28;20640;-58
2021/03/01 03:28:31;;;;;;;24.23;18.93;;;;;;;;;;2076967;28;20188;-54
2021/03/01 03:29:32;;;;;;;25.37;17.70;;;;;;;;;;2085206;28;20170;-59
2021/03/01 03:30:32;;;;;;;28.23;20.90;;;;;;;;;;2085128;28;20259;-56
2021/03/01 03:31:33;;;;;;;27.40;20.23;;;;;;;;;;2085593;28;20537;-58
2021/03/01 03:32:33;;;;;;;29.77;19.80;;;;;;;;;;2082216;28;20234;-56
2021/03/01 03:33:33;;;;;;;27.30;20.50;;;;;;;;;;2086917;28;20278;-55
2021/03/01 03:34:33;;;;;;;27.70;19.17;;;;;;;;;;2084814;28;20267;-57
2021/03/01 03:35:34;;;;;;;25.33;20.67;;;;;;;;;;2087057;28;20179;-57
2021/03/01 03:36:43;;;;;;;28.77;19.73;;;;;;;;;;2088773;28;20643;-55
2021/03/01 03:37:45;;;;;;;26.00;18.53;;;;;;;;;;2086161;28;20180;-57
2021/03/01 03:38:56;;;;;;;26.30;17.97;;;;;;;;;;2085209;28;20221;-55
2021/03/01 03:39:57;;;;;;;29.43;18.03;;;;;;;;;;2088154;28;20180;-57
2021/03/01 03:40:59;;;;;;;26.27;18.07;;;;;;;;;;2089489;28;20172;-57
2021/03/01 03:42:00;;;;;;;29.60;18.90;;;;;;;;;;2079636;28;20192;-55
2021/03/01 03:43:01;;;;;;;27.67;19.07;;;;;;;;;;2080464;28;20251;-55
2021/03/01 03:44:02;;;;;;;24.77;17.20;;;;;;;;;;2074714;28;20168;-54
2021/03/01 03:45:05;;;;;;;29.30;18.87;;;;;;;;;;2086695;28;20208;-56
2021/03/01 03:46:06;;;;;;;32.13;19.23;;;;;;;;;;2086559;28;20180;-57
2021/03/01 03:47:07;;;;;;;31.83;19.63;;;;;;;;;;2086012;28;20263;-53
2021/03/01 03:48:08;;;;;;;28.93;19.83;;;;;;;;;;2089418;28;20171;-57
2021/03/01 03:49:09;;;;;;;29.17;18.37;;;;;;;;;;2076564;28;20203;-52
2021/03/01 03:50:10;;;;;;;30.83;20.23;;;;;;;;;;2085765;28;20199;-56
2021/03/01 03:51:12;;;;;;;31.20;20.93;;;;;;;;;;2085054;28;20632;-54
2021/03/01 03:52:15;;;;;;;31.17;19.67;;;;;;;;;;2074383;28;20169;-53
2021/03/01 03:53:16;;;;;;;30.80;20.63;;;;;;;;;;2071952;28;20295;-55
2021/03/01 03:54:18;;;;;;;27.93;19.07;;;;;;;;;;2089661;28;20171;-51
2021/03/01 03:55:19;;;;;;;27.53;19.07;;;;;;;;;;2089611;28;20175;-57
2021/03/01 03:56:24;;;;;;;29.03;18.47;;;;;;;;;;2084941;28;20187;-53
2021/03/01 03:57:27;;;;;;;28.93;19.03;;;;;;;;;;2082412;28;20281;-54
2021/03/01 03:58:33;;;;;;;34.77;21.20;;;;;;;;;;2085983;28;20262;-52
2021/03/01 03:59:36;;;;;;;34.83;19.37;;;;;;;;;;2086630;28;20644;-53
2021/03/01 04:00:37;;;;;;;29.83;19.07;;;;;;;;;;2087094;28;20175;-56
2021/03/01 04:01:38;;;;;;;32.47;19.50;;;;;;;;;;2089097;28;20520;-52
2021/03/01 04:02:41;;;;;;;36.63;19.90;;;;;;;;;;2086336;28;20600;-54
2021/03/01 04:03:42;;;;;;;34.00;19.00;;;;;;;;;;2087085;28;20188;-55
2021/03/01 04:04:43;;;;;;;29.30;19.93;;;;;;;;;;2082856;28;20342;-55
2021/03/01 04:05:44;;;;;;;30.47;20.10;;;;;;;;;;2088044;28;20647;-56
2021/03/01 04:06:45;;;;;;;30.60;19.40;;;;;;;;;;2086085;28;20179;-54
2021/03/01 04:07:45;;;;;;;28.20;18.40;;;;;;;;;;2086493;28;20179;-58
2021/03/01 04:08:49;;;;;;;30.93;18.73;;;;;;;;;;2077934;28;20656;-58
2021/03/01 04:09:50;;;;;;;36.83;19.27;;;;;;;;;;2076255;28;20177;-59
2021/03/01 04:10:51;;;;;;;29.60;18.07;;;;;;;;;;2075766;28;20587;-57
2021/03/01 04:11:52;;;;;;;31.67;19.43;;;;;;;;;;2076770;28;20683;-53
2021/03/01 04:12:53;;;;;;;33.40;19.27;;;;;;;;;;2083831;28;20176;-58
2021/03/01 04:13:54;;;;;;;25.87;17.80;;;;;;;;;;2086465;28;20237;-59
2021/03/01 04:14:55;;;;;;;29.60;18.97;;;;;;;;;;2083214;28;20267;-57
2021/03/01 04:15:55;;;;;;;25.63;17.50;;;;;;;;;;2088888;28;20636;-58
2021/03/01 04:16:57;;;;;;;26.73;17.77;;;;;;;;;;2082331;28;20176;-52
2021/03/01 04:17:58;;;;;;;28.43;18.50;;;;;;;;;;2081551;28;20193;-57
2021/03/01 04:19:02;;;;;;;27.50;17.23;;;;;;;;;;2082345;28;20176;-59
2021/03/01 04:20:04;;;;;;;27.93;16.23;;;;;;;;;;2083620;28;20191;-58
2021/03/01 04:21:06;;;;;;;29.67;17.80;;;;;;;;;;2089466;28;20171;-58
2021/03/01 04:22:07;;;;;;;24.63;16.00;;;;;;;;;;2082968;28;20576;-57
2021/03/01 04:23:07;;;;;;;26.80;16.10;;;;;;;;;;2088208;28;20214;-61
2021/03/01 04:24:09;;;;;;;21.23;14.43;;;;;;;;;;2082333;28;20651;-58
2021/03/01 04:25:10;;;;;;;21.80;14.40;;;;;;;;;;2090093;28;20207;-60
2021/03/01 04:26:10;;;;;;;22.30;14.27;;;;;;;;;;2086997;28;20174;-60
2021/03/01 04:27:11;;;;;;;20.83;13.27;;;;;;;;;;2081172;28;20266;-56
2021/03/01 04:28:12;;;;;;;20.50;13.00;;;;;;;;;;2076931;28;20581;-58
2021/03/01 04:29:12;;;;;;;20.37;13.53;;;;;;;;;;2089775;28;20183;-57
2021/03/01 04:30:14;;;;;;;20.97;13.33;;;;;;;;;;2087632;28;20159;-60
2021/03/01 04:31:15;;;;;;;20.47;13.30;;;;;;;;;;2080075;28;20176;-57
2021/03/01 04:32:16;;;;;;;22.23;13.77;;;;;;;;;;2083431;28;20177;-58
2021/03/01 04:33:17;;;;;;;18.13;13.03;;;;;;;;;;2084033;28;20196;-59
2021/03/01 04:34:18;;;;;;;21.17;13.73;;;;;;;;;;2087385;28;20183;-59
2021/03/01 04:35:19;;;;;;;22.77;12.93;;;;;;;;;;2081424;28;20610;-57
2021/03/01 04:36:20;;;;;;;20.63;13.13;;;;;;;;;;2081065;28;20202;-55
2021/03/01 04:37:20;;;;;;;20.60;12.00;;;;;;;;;;2083503;28;20268;-60
2021/03/01 04:38:20;;;;;;;19.43;12.67;;;;;;;;;;2083690;28;20254;-60
2021/03/01 04:39:21;;;;;;;17.30;11.57;;;;;;;;;;2086193;28;20172;-57
2021/03/01 04:40:21;;;;;;;19.10;12.43;;;;;;;;;;2080263;28;20176;-61
2021/03/01 04:41:23;;;;;;;19.43;12.37;;;;;;;;;;2084378;28;20669;-57
2021/03/01 04:42:23;;;;;;;21.77;13.60;;;;;;;;;;2084742;28;20677;-59
2021/03/01 04:43:24;;;;;;;18.07;11.83;;;;;;;;;;2086320;28;20278;-56
2021/03/01 04:44:24;;;;;;;20.73;12.60;;;;;;;;;;2091612;28;20694;-58
2021/03/01 04:45:25;;;;;;;20.20;13.03;;;;;;;;;;2090715;28;20226;-59
2021/03/01 04:46:26;;;;;;;24.10;12.67;;;;;;;;;;2080349;28;20171;-58
2021/03/01 04:47:27;;;;;;;17.63;12.00;;;;;;;;;;2084608;28;20195;-58
2021/03/01 04:48:29;;;;;;;18.90;12.53;;;;;;;;;;2085739;28;20581;-59
2021/03/01 04:49:29;;;;;;;20.07;13.13;;;;;;;;;;2084484;28;20176;-60
2021/03/01 04:50:30;;;;;;;19.20;13.13;;;;;;;;;;2085908;28;20184;-60
2021/03/01 04:51:31;;;;;;;21.77;13.47;;;;;;;;;;2084336;28;20183;-58
2021/03/01 04:52:32;;;;;;;15.83;11.60;;;;;;;;;;2079424;28;20175;-61
2021/03/01 04:53:33;;;;;;;20.83;12.67;;;;;;;;;;2105772;22;21601;-57
2021/03/01 04:54:34;;;;;;;19.37;12.53;;;;;;;;;;2084754;28;20272;-54
2021/03/01 04:55:35;;;;;;;23.73;12.93;;;;;;;;;;2094202;28;20171;-55
2021/03/01 04:56:39;;;;;;;22.97;13.47;;;;;;;;;;2086964;28;20531;-58
2021/03/01 04:57:40;;;;;;;20.53;13.20;;;;;;;;;;2087553;28;20179;-54
2021/03/01 04:58:40;;;;;;;19.80;12.83;;;;;;;;;;2094688;28;20182;-54
2021/03/01 04:59:41;;;;;;;23.13;13.63;;;;;;;;;;2093220;28;20176;-54
2021/03/01 05:00:42;;;;;;;24.17;12.97;;;;;;;;;;2089085;28;20254;-55
2021/03/01 05:01:42;;;;;;;23.23;13.90;;;;;;;;;;2079778;28;20664;-58
2021/03/01 05:02:43;;;;;;;21.83;12.30;;;;;;;;;;2076905;28;20545;-56
2021/03/01 05:03:44;;;;;;;20.90;12.57;;;;;;;;;;2088150;28;20199;-55
2021/03/01 05:04:44;;;;;;;20.93;12.73;;;;;;;;;;2094263;28;20269;-59
2021/03/01 05:05:44;;;;;;;18.27;11.37;;;;;;;;;;2080237;28;20319;-55
2021/03/01 05:06:45;;;;;;;19.57;12.40;;;;;;;;;;2087580;28;20530;-57
2021/03/01 05:07:46;;;;;;;20.50;12.80;;;;;;;;;;2076666;28;20196;-55
2021/03/01 05:08:47;;;;;;;20.93;12.67;;;;;;;;;;2079548;28;20172;-54
2021/03/01 05:09:48;;;;;;;21.20;13.37;;;;;;;;;;2085119;28;20808;-54
2021/03/01 05:10:48;;;;;;;24.57;13.63;;;;;;;;;;2094786;28;20254;-58
2021/03/01 05:11:49;;;;;;;20.10;13.10;;;;;;;;;;2095766;28;20187;-56
2021/03/01 05:12:49;;;;;;;18.00;12.10;;;;;;;;;;2075626;28;20272;-53
2021/03/01 05:13:49;;;;;;;25.60;14.13;;;;;;;;;;2086718;28;20199;-57
2021/03/01 05:14:49;;;;;;;21.97;12.53;;;;;;;;;;2090988;28;20180;-57
2021/03/01 05:15:50;;;;;;;22.67;13.40;;;;;;;;;;2096455;28;20683;-57
2021/03/01 05:16:50;;;;;;;23.27;13.60;;;;;;;;;;2090667;28;20195;-55
2021/03/01 05:17:50;;;;;;;24.57;14.17;;;;;;;;;;2098313;28;20734;-58
2021/03/01 05:18:51;;;;;;;22.43;12.67;;;;;;;;;;2092179;28;20179;-59
2021/03/01 05:19:51;;;;;;;21.20;13.03;;;;;;;;;;2102273;28;20183;-59
2021/03/01 05:20:52;;;;;;;22.50;12.90;;;;;;;;;;2101785;28;20246;-57
2021/03/01 05:21:52;;;;;;;23.03;14.20;;;;;;;;;;2098092;28;20190;-59
2021/03/01 05:22:52;;;;;;;26.30;15.33;;;;;;;;;;2096317;28;20182;-57
2021/03/01 05:23:53;;;;;;;22.63;14.50;;;;;;;;;;2100816;28;20222;-58
2021/03/01 05:24:53;;;;;;;24.77;13.27;;;;;;;;;;2102999;28;20587;-59
2021/03/01 05:25:53;;;;;;;21.77;13.57;;;;;;;;;;2085704;28;20216;-60
2021/03/01 05:26:53;;;;;;;21.40;13.87;;;;;;;;;;2081164;28;20164;-58
2021/03/01 05:27:54;;;;;;;21.83;14.43;;;;;;;;;;2086165;28;20200;-59
2021/03/01 05:28:55;;;;;;;23.23;13.70;;;;;;;;;;2085712;28;20216;-57
2021/03/01 05:29:55;;;;;;;23.57;14.60;;;;;;;;;;2099261;28;20565;-56
2021/03/01 05:30:56;;;;;;;19.83;13.47;;;;;;;;;;2077345;28;20248;-57
2021/03/01 05:31:56;;;;;;;22.10;14.23;;;;;;;;;;2075874;28;20180;-57
2021/03/01 05:32:56;;;;;;;20.70;12.53;;;;;;;;;;2085215;28;20208;-57
2021/03/01 05:33:56;;;;;;;21.00;13.00;;;;;;;;;;2084833;28;20250;-59
2021/03/01 05:34:57;;;;;;;21.37;12.80;;;;;;;;;;2073058;28;20676;-57
2021/03/01 05:35:57;;;;;;;20.13;12.33;;;;;;;;;;2067372;28;20185;-53
2021/03/01 05:36:58;;;;;;;19.63;12.33;;;;;;;;;;2078981;28;20180;-55
2021/03/01 05:37:58;;;;;;;22.10;13.57;;;;;;;;;;2079762;28;20565;-57
2021/03/01 05:38:59;;;;;;;19.43;12.80;;;;;;;;;;2070781;28;20180;-57
2021/03/01 05:39:59;;;;;;;20.97;11.33;;;;;;;;;;2080504;28;20267;-55
2021/03/01 05:41:01;;;;;;;20.30;11.73;;;;;;;;;;2080825;28;20710;-53
2021/03/01 05:42:01;;;;;;;17.70;11.80;;;;;;;;;;2088931;28;20558;-57
2021/03/01 05:43:01;;;;;;;17.17;11.60;;;;;;;;;;2081019;28;20187;-56
2021/03/01 05:44:02;;;;;;;17.00;11.00;;;;;;;;;;2080594;28;20559;-57
2021/03/01 05:45:03;;;;;;;19.53;10.87;;;;;;;;;;2089571;28;20278;-58
2021/03/01 05:46:04;;;;;;;18.13;11.40;;;;;;;;;;2088990;28;20180;-56
2021/03/01 05:47:05;;;;;;;16.10;10.73;;;;;;;;;;2090893;28;20639;-58
2021/03/01 05:48:09;;;;;;;17.57;10.77;;;;;;;;;;2093707;28;20207;-56
2021/03/01 05:49:10;;;;;;;18.83;11.80;;;;;;;;;;2081781;28;20184;-57
2021/03/01 05:50:10;;;;;;;17.13;11.03;;;;;;;;;;2084579;28;20168;-55
2021/03/01 05:51:10;;;;;;;18.43;11.47;;;;;;;;;;2095390;28;20182;-56
2021/03/01 05:52:15;;;;;;;17.00;11.70;;;;;;;;;;2086378;28;20176;-55
2021/03/01 05:53:17;;;;;;;18.80;11.40;;;;;;;;;;2095218;28;20171;-55
2021/03/01 05:54:24;;;;;;;16.30;11.67;;;;;;;;;;2091488;28;20266;-55
2021/03/01 05:55:25;;;;;;;21.57;12.20;;;;;;;;;;2084924;28;20216;-55
2021/03/01 05:56:25;;;;;;;19.83;12.10;;;;;;;;;;2084192;28;20225;-59
2021/03/01 05:57:26;;;;;;;23.47;13.40;;;;;;;;;;2089785;28;20215;-58